Nearby METAR Reports

 

KBFI - Seattle/Boeing, Washington, USA
Distance from station: S 10mi, 16km
Updated: Sun, 20-Aug-2017 3:53am PDT
Clear
Clear
 Wind from N
Wind: N 5 mph , 7 km/h
Temperature: 59°F , 15°C
Dew Point: 52°F , 11°C
Humidity: 77%
Barometer: 30.16 inHg , 1021.3 hPa
Clouds: Clear
Visibility: 10 miles , 16 km
2017/08/20 10:53 KBFI 201053Z 35004KT 10SM CLR 15/11 A3016 RMK AO2 SLP212 T01500111
KRNT - Renton, Washington, USA
Distance from station: SSE 14mi, 23km
Updated: Sun, 20-Aug-2017 3:53am PDT
Clear
Clear
 Wind from NW
Wind: NW 10 mph , 17 km/h
Temperature: 61°F , 16°C
Dew Point: 52°F , 11°C
Humidity: 72%
Barometer: 30.15 inHg , 1021 hPa
Clouds: Clear
Visibility: 9 miles , 14 km
2017/08/20 10:53 KRNT 201053Z AUTO 31009KT 9SM CLR 16/11 A3015 RMK AO2 SLP216 T01560106
 
KPAE - Everett, Washington, USA
Distance from station: N 15mi, 25km
Updated: Sun, 20-Aug-2017 3:53am PDT
Clear
Clear
 Wind from calm
Wind: Calm
Temperature: 54°F , 12°C
Dew Point: 50°F , 10°C
Humidity: 88%
Barometer: 30.17 inHg , 1021.7 hPa
Clouds: Clear
Visibility: 10 miles , 16 km
2017/08/20 10:53 KPAE 201053Z AUTO 00000KT 10SM CLR 12/10 A3017 RMK AO2 SLP217 T01220100
KSEA - Seattle/Metro, Washington, USA
Distance from station: S 17mi, 27km
Updated: Sun, 20-Aug-2017 3:53am PDT
Partly cloudy
Partly cloudy
 Wind from N
Wind: N 9 mph , 15 km/h
Temperature: 57°F , 14°C
Dew Point: 48°F , 9°C
Humidity: 72%
Barometer: 30.16 inHg , 1021.3 hPa
Clouds: Partly cloudy
Visibility: 10 miles , 16 km
Cloud details: Partly cloudy 25000 ft
2017/08/20 10:53 KSEA 201053Z 36008KT 10SM SCT250 14/09 A3016 RMK AO2 SLP217 T01390094
 
KPWT - Bremerton Ntnl, Washington, USA
Distance from station: SW 24mi, 39km
Updated: Sun, 20-Aug-2017 3:56am PDT
Clear
Clear
 Wind from calm
Wind: Calm
Temperature: 52°F , 11°C
Dew Point: 48°F , 9°C
Humidity: 88%
Barometer: 30.17 inHg , 1021.7 hPa
Clouds: Clear
2017/08/20 10:56 KPWT 201056Z AUTO 00000KT CLR 11/09 A3017 RMK AO2 SLP230 T01060089 PWINO $
KTIW - Tacoma, Washington, USA
Distance from station: SSW 32mi, 52km
Updated: Sun, 20-Aug-2017 3:53am PDT
Clear
Clear
 Wind from calm
Wind: Calm
Temperature: 55°F , 13°C
Dew Point: 52°F , 11°C
Humidity: 88%
Barometer: 30.17 inHg , 1021.7 hPa
Clouds: Clear
Visibility: 10 miles , 16 km
2017/08/20 10:53 KTIW 201053Z AUTO 00000KT 10SM CLR 13/11 A3017 RMK AO2 SLP214 T01280106
 
KAWO - Arlington Muni, Washington, USA
Distance from station: N 33mi, 54km
Updated: Sun, 20-Aug-2017 3:56am PDT
Clear
Clear
 Wind from N
Wind: N 7 mph , 11 km/h
Temperature: 48°F , 9°C
Wind Chill: 45°F , 7°C
Dew Point: 46°F , 8°C
Humidity: 94%
Barometer: 30.18 inHg , 1022 hPa
Clouds: Clear
Visibility: 10 miles , 16 km
2017/08/20 10:56 KAWO 201056Z AUTO 35006KT 10SM CLR 09/08 A3018 RMK AO2 SLP223 T00940083
KTCM - Tacoma/Mc Chord, Washington, USA
Distance from station: S 41mi, 65km
Updated: Sun, 20-Aug-2017 3:58am PDT
Clear
Clear
 Wind from calm
Wind: Calm
Temperature: 50°F , 10°C
Dew Point: 50°F , 10°C
Humidity: 100%
Barometer: 30.16 inHg , 1021.3 hPa
Clouds: Clear
Visibility: 10 miles , 16 km
2017/08/20 10:58 KTCM 201058Z AUTO 00000KT 10SM CLR 10/10 A3016 RMK AO2 SLP216 T01030102 $
 
KPLU - Puyallup/Thun, Washington, USA
Distance from station: S 41mi, 66km
Updated: Sun, 20-Aug-2017 4:15am PDT
Mostly cloudy
Mostly cloudy
 Wind from calm
Wind: Calm
Temperature: 52°F , 11°C
Dew Point: 52°F , 11°C
Humidity: 100%
Barometer: 30.16 inHg , 1021.3 hPa
Clouds: Mostly cloudy
Visibility: 10 miles , 16 km
Cloud details: Mostly cloudy 3100 ft
2017/08/20 11:15 KPLU 201115Z AUTO 00000KT 10SM BKN031 11/11 A3016 RMK AO2
KGRF - Fort Lewis/Gray, Washington, USA
Distance from station: SSW 45mi, 72km
Updated: Sun, 20-Aug-2017 3:58am PDT
Clear
Clear
 Wind from calm
Wind: Calm
Temperature: 52°F , 11°C
Dew Point: 50°F , 10°C
Humidity: 94%
Barometer: 30.15 inHg , 1021 hPa
Clouds: Clear
Visibility: 10 miles , 16 km
2017/08/20 10:58 KGRF 201058Z AUTO 00000KT 10SM CLR 11/10 A3015 RMK AO2 SLP213 T01100103 $
 
KNUW - Whidbey Is. Nas, Washington, USA
Distance from station: NNW 48mi, 77km
Updated: Sun, 20-Aug-2017 3:56am PDT
Partly cloudy
Partly cloudy
 Wind from SSW
Wind: SSW 5 mph , 7 km/h
Temperature: 55°F , 13°C
Dew Point: 48°F , 9°C
Humidity: 77%
Barometer: 30.20 inHg , 1022.7 hPa
Clouds: Partly cloudy
Visibility: 10 miles , 16 km
Cloud details: Few Clouds 10000 ft
Partly cloudy 25000 ft
2017/08/20 10:56 KNUW 201056Z 20004KT 10SM FEW100 SCT250 13/09 A3020 RMK AO2 SLP226 T01330094 $
KSHN - Shelton, Washington, USA
Distance from station: SW 50mi, 80km
Updated: Sun, 20-Aug-2017 3:53am PDT
Clear
Clear
 Wind from calm
Wind: Calm
Temperature: 52°F , 11°C
Dew Point: 48°F , 9°C
Humidity: 88%
Barometer: 30.15 inHg , 1021 hPa
Clouds: Clear
Visibility: 10 miles , 16 km
2017/08/20 10:53 KSHN 201053Z AUTO 00000KT 10SM CLR 11/09 A3015 RMK AO2 SLP208 T01110094 $